sensor_id;sensor_type;location;lat;lon;timestamp;P1;durP1;ratioP1;P2;durP2;ratioP2
13683;SDS011;6914;53.552;9.908;2023-06-04T00:02:21;6.70;;;2.80;;
13683;SDS011;6914;53.552;9.908;2023-06-04T00:04:48;3.27;;;2.97;;
13683;SDS011;6914;53.552;9.908;2023-06-04T00:07:15;4.70;;;2.70;;
13683;SDS011;6914;53.552;9.908;2023-06-04T00:09:42;3.97;;;3.17;;
13683;SDS011;6914;53.552;9.908;2023-06-04T00:12:13;4.50;;;2.70;;
13683;SDS011;6914;53.552;9.908;2023-06-04T00:14:40;2.90;;;2.40;;
13683;SDS011;6914;53.552;9.908;2023-06-04T00:17:08;4.00;;;2.37;;
13683;SDS011;6914;53.552;9.908;2023-06-04T00:19:35;4.30;;;2.80;;
13683;SDS011;6914;53.552;9.908;2023-06-04T00:22:03;2.87;;;2.67;;
13683;SDS011;6914;53.552;9.908;2023-06-04T00:24:34;8.07;;;2.23;;
13683;SDS011;6914;53.552;9.908;2023-06-04T00:27:01;2.80;;;2.60;;
13683;SDS011;6914;53.552;9.908;2023-06-04T00:29:30;5.33;;;2.70;;
13683;SDS011;6914;53.552;9.908;2023-06-04T00:31:57;8.27;;;3.07;;
13683;SDS011;6914;53.552;9.908;2023-06-04T00:34:24;3.13;;;2.33;;
13683;SDS011;6914;53.552;9.908;2023-06-04T00:36:52;2.37;;;2.17;;
13683;SDS011;6914;53.552;9.908;2023-06-04T00:39:19;7.23;;;2.97;;
13683;SDS011;6914;53.552;9.908;2023-06-04T00:41:46;4.10;;;2.97;;
13683;SDS011;6914;53.552;9.908;2023-06-04T00:44:14;6.90;;;2.33;;
13683;SDS011;6914;53.552;9.908;2023-06-04T00:46:43;4.80;;;2.83;;
13683;SDS011;6914;53.552;9.908;2023-06-04T00:49:12;3.23;;;2.93;;
13683;SDS011;6914;53.552;9.908;2023-06-04T00:51:40;4.40;;;2.70;;
13683;SDS011;6914;53.552;9.908;2023-06-04T00:54:08;7.93;;;3.10;;
13683;SDS011;6914;53.552;9.908;2023-06-04T00:56:36;2.37;;;2.17;;
13683;SDS011;6914;53.552;9.908;2023-06-04T00:59:04;3.47;;;3.17;;
13683;SDS011;6914;53.552;9.908;2023-06-04T01:01:37;4.67;;;2.63;;
13683;SDS011;6914;53.552;9.908;2023-06-04T01:04:09;5.03;;;2.90;;
13683;SDS011;6914;53.552;9.908;2023-06-04T01:06:39;8.10;;;2.83;;
13683;SDS011;6914;53.552;9.908;2023-06-04T01:09:10;4.60;;;2.63;;
13683;SDS011;6914;53.552;9.908;2023-06-04T01:11:38;6.43;;;2.70;;
13683;SDS011;6914;53.552;9.908;2023-06-04T01:14:06;9.33;;;2.73;;
13683;SDS011;6914;53.552;9.908;2023-06-04T01:16:36;3.80;;;3.50;;
13683;SDS011;6914;53.552;9.908;2023-06-04T01:19:11;8.23;;;2.40;;
13683;SDS011;6914;53.552;9.908;2023-06-04T01:21:46;5.67;;;3.20;;
13683;SDS011;6914;53.552;9.908;2023-06-04T01:24:16;3.50;;;2.90;;
13683;SDS011;6914;53.552;9.908;2023-06-04T01:26:45;3.00;;;2.90;;
13683;SDS011;6914;53.552;9.908;2023-06-04T01:29:13;3.20;;;3.10;;
13683;SDS011;6914;53.552;9.908;2023-06-04T01:31:40;4.00;;;3.70;;
13683;SDS011;6914;53.552;9.908;2023-06-04T01:34:09;3.70;;;3.40;;
13683;SDS011;6914;53.552;9.908;2023-06-04T01:36:36;3.57;;;3.27;;
13683;SDS011;6914;53.552;9.908;2023-06-04T01:39:06;19.43;;;3.40;;
13683;SDS011;6914;53.552;9.908;2023-06-04T01:41:36;3.90;;;3.60;;
13683;SDS011;6914;53.552;9.908;2023-06-04T01:44:03;3.40;;;3.10;;
13683;SDS011;6914;53.552;9.908;2023-06-04T01:46:31;3.63;;;3.43;;
13683;SDS011;6914;53.552;9.908;2023-06-04T01:48:58;7.33;;;3.70;;
13683;SDS011;6914;53.552;9.908;2023-06-04T01:51:27;5.60;;;2.90;;
13683;SDS011;6914;53.552;9.908;2023-06-04T01:53:54;2.97;;;2.77;;
13683;SDS011;6914;53.552;9.908;2023-06-04T01:56:21;3.13;;;2.93;;
13683;SDS011;6914;53.552;9.908;2023-06-04T01:58:50;5.43;;;3.53;;
13683;SDS011;6914;53.552;9.908;2023-06-04T02:01:17;3.03;;;2.93;;
13683;SDS011;6914;53.552;9.908;2023-06-04T02:03:45;4.43;;;3.10;;
13683;SDS011;6914;53.552;9.908;2023-06-04T02:06:12;3.40;;;2.93;;
13683;SDS011;6914;53.552;9.908;2023-06-04T02:08:41;6.97;;;3.50;;
13683;SDS011;6914;53.552;9.908;2023-06-04T02:11:12;5.07;;;3.50;;
13683;SDS011;6914;53.552;9.908;2023-06-04T02:13:39;5.30;;;3.00;;
13683;SDS011;6914;53.552;9.908;2023-06-04T02:16:06;9.80;;;3.97;;
13683;SDS011;6914;53.552;9.908;2023-06-04T02:18:33;5.03;;;3.63;;
13683;SDS011;6914;53.552;9.908;2023-06-04T02:21:00;4.10;;;3.77;;
13683;SDS011;6914;53.552;9.908;2023-06-04T02:23:28;3.87;;;3.40;;
13683;SDS011;6914;53.552;9.908;2023-06-04T02:25:56;3.33;;;3.13;;
13683;SDS011;6914;53.552;9.908;2023-06-04T02:28:23;4.33;;;3.13;;
13683;SDS011;6914;53.552;9.908;2023-06-04T02:30:51;3.57;;;3.27;;
13683;SDS011;6914;53.552;9.908;2023-06-04T02:33:18;4.40;;;3.00;;
13683;SDS011;6914;53.552;9.908;2023-06-04T02:35:45;4.17;;;3.20;;
13683;SDS011;6914;53.552;9.908;2023-06-04T02:38:12;10.53;;;3.43;;
13683;SDS011;6914;53.552;9.908;2023-06-04T02:40:39;3.57;;;2.97;;
13683;SDS011;6914;53.552;9.908;2023-06-04T02:43:09;3.53;;;3.20;;
13683;SDS011;6914;53.552;9.908;2023-06-04T02:45:37;2.70;;;2.60;;
13683;SDS011;6914;53.552;9.908;2023-06-04T02:48:05;7.23;;;3.00;;
13683;SDS011;6914;53.552;9.908;2023-06-04T02:50:34;6.00;;;2.90;;
13683;SDS011;6914;53.552;9.908;2023-06-04T02:53:01;6.33;;;3.20;;
13683;SDS011;6914;53.552;9.908;2023-06-04T02:55:29;12.63;;;3.83;;
13683;SDS011;6914;53.552;9.908;2023-06-04T02:57:56;2.60;;;2.50;;
13683;SDS011;6914;53.552;9.908;2023-06-04T03:00:25;7.07;;;3.10;;
13683;SDS011;6914;53.552;9.908;2023-06-04T03:02:52;3.50;;;3.00;;
13683;SDS011;6914;53.552;9.908;2023-06-04T03:05:26;3.13;;;2.93;;
13683;SDS011;6914;53.552;9.908;2023-06-04T03:07:55;3.10;;;2.80;;
13683;SDS011;6914;53.552;9.908;2023-06-04T03:10:24;3.93;;;2.33;;
13683;SDS011;6914;53.552;9.908;2023-06-04T03:12:51;2.93;;;2.63;;
13683;SDS011;6914;53.552;9.908;2023-06-04T03:15:18;3.27;;;2.53;;
13683;SDS011;6914;53.552;9.908;2023-06-04T03:17:47;2.00;;;1.90;;
13683;SDS011;6914;53.552;9.908;2023-06-04T03:20:16;2.70;;;2.50;;
13683;SDS011;6914;53.552;9.908;2023-06-04T03:22:43;3.83;;;3.00;;
13683;SDS011;6914;53.552;9.908;2023-06-04T03:25:13;3.20;;;2.33;;
13683;SDS011;6914;53.552;9.908;2023-06-04T03:27:41;3.83;;;2.03;;
13683;SDS011;6914;53.552;9.908;2023-06-04T03:30:09;3.00;;;2.70;;
13683;SDS011;6914;53.552;9.908;2023-06-04T03:32:38;2.27;;;2.17;;
13683;SDS011;6914;53.552;9.908;2023-06-04T03:35:07;3.80;;;3.40;;
13683;SDS011;6914;53.552;9.908;2023-06-04T03:37:37;2.47;;;2.27;;
13683;SDS011;6914;53.552;9.908;2023-06-04T03:40:05;3.00;;;2.80;;
13683;SDS011;6914;53.552;9.908;2023-06-04T03:42:33;5.27;;;2.50;;
13683;SDS011;6914;53.552;9.908;2023-06-04T03:45:00;11.93;;;3.17;;
13683;SDS011;6914;53.552;9.908;2023-06-04T03:47:27;4.27;;;3.87;;
13683;SDS011;6914;53.552;9.908;2023-06-04T03:49:55;5.70;;;3.53;;
13683;SDS011;6914;53.552;9.908;2023-06-04T03:52:23;4.67;;;2.90;;
13683;SDS011;6914;53.552;9.908;2023-06-04T03:54:51;4.07;;;2.10;;
13683;SDS011;6914;53.552;9.908;2023-06-04T03:57:19;2.80;;;2.53;;
13683;SDS011;6914;53.552;9.908;2023-06-04T03:59:46;6.30;;;2.47;;
13683;SDS011;6914;53.552;9.908;2023-06-04T04:02:13;2.50;;;2.30;;
13683;SDS011;6914;53.552;9.908;2023-06-04T04:04:42;9.53;;;2.50;;
13683;SDS011;6914;53.552;9.908;2023-06-04T04:07:09;11.07;;;2.90;;
13683;SDS011;6914;53.552;9.908;2023-06-04T04:09:39;4.30;;;2.70;;
13683;SDS011;6914;53.552;9.908;2023-06-04T04:12:07;4.20;;;3.17;;
13683;SDS011;6914;53.552;9.908;2023-06-04T04:14:37;8.50;;;2.67;;
13683;SDS011;6914;53.552;9.908;2023-06-04T04:17:04;3.93;;;2.73;;
13683;SDS011;6914;53.552;9.908;2023-06-04T04:19:32;2.90;;;2.70;;
13683;SDS011;6914;53.552;9.908;2023-06-04T04:21:59;2.77;;;2.57;;
13683;SDS011;6914;53.552;9.908;2023-06-04T04:24:26;9.30;;;2.60;;
13683;SDS011;6914;53.552;9.908;2023-06-04T04:26:55;4.70;;;2.60;;
13683;SDS011;6914;53.552;9.908;2023-06-04T04:29:23;4.70;;;2.60;;
13683;SDS011;6914;53.552;9.908;2023-06-04T04:31:52;3.20;;;2.90;;
13683;SDS011;6914;53.552;9.908;2023-06-04T04:34:21;4.43;;;2.90;;
13683;SDS011;6914;53.552;9.908;2023-06-04T04:36:49;5.57;;;3.30;;
13683;SDS011;6914;53.552;9.908;2023-06-04T04:39:17;5.97;;;3.00;;
13683;SDS011;6914;53.552;9.908;2023-06-04T04:41:45;3.23;;;3.03;;
13683;SDS011;6914;53.552;9.908;2023-06-04T04:44:14;8.37;;;3.50;;
13683;SDS011;6914;53.552;9.908;2023-06-04T04:46:41;5.17;;;3.00;;
13683;SDS011;6914;53.552;9.908;2023-06-04T04:49:08;3.00;;;2.80;;
13683;SDS011;6914;53.552;9.908;2023-06-04T04:51:37;7.60;;;3.63;;
13683;SDS011;6914;53.552;9.908;2023-06-04T04:54:05;10.30;;;3.90;;
13683;SDS011;6914;53.552;9.908;2023-06-04T04:56:34;8.30;;;2.60;;
13683;SDS011;6914;53.552;9.908;2023-06-04T04:59:02;6.30;;;3.40;;
13683;SDS011;6914;53.552;9.908;2023-06-04T05:01:31;4.47;;;3.57;;
13683;SDS011;6914;53.552;9.908;2023-06-04T05:03:58;10.70;;;4.63;;
13683;SDS011;6914;53.552;9.908;2023-06-04T05:06:26;13.60;;;4.20;;
13683;SDS011;6914;53.552;9.908;2023-06-04T05:08:53;8.00;;;4.60;;
13683;SDS011;6914;53.552;9.908;2023-06-04T05:11:20;5.00;;;4.20;;
13683;SDS011;6914;53.552;9.908;2023-06-04T05:13:48;13.60;;;3.63;;
13683;SDS011;6914;53.552;9.908;2023-06-04T05:16:16;11.60;;;4.27;;
13683;SDS011;6914;53.552;9.908;2023-06-04T05:18:46;13.00;;;3.90;;
13683;SDS011;6914;53.552;9.908;2023-06-04T05:21:16;5.07;;;3.73;;
13683;SDS011;6914;53.552;9.908;2023-06-04T05:23:43;8.17;;;4.07;;
13683;SDS011;6914;53.552;9.908;2023-06-04T05:26:13;4.53;;;4.03;;
13683;SDS011;6914;53.552;9.908;2023-06-04T05:28:40;3.80;;;3.50;;
13683;SDS011;6914;53.552;9.908;2023-06-04T05:31:14;6.63;;;3.37;;
13683;SDS011;6914;53.552;9.908;2023-06-04T05:33:43;5.33;;;3.40;;
13683;SDS011;6914;53.552;9.908;2023-06-04T05:36:14;11.50;;;3.70;;
13683;SDS011;6914;53.552;9.908;2023-06-04T05:38:42;5.83;;;3.40;;
13683;SDS011;6914;53.552;9.908;2023-06-04T05:41:09;7.03;;;3.63;;
13683;SDS011;6914;53.552;9.908;2023-06-04T05:43:38;8.80;;;3.33;;
13683;SDS011;6914;53.552;9.908;2023-06-04T05:46:05;8.97;;;3.60;;
13683;SDS011;6914;53.552;9.908;2023-06-04T05:48:32;12.03;;;3.60;;
13683;SDS011;6914;53.552;9.908;2023-06-04T05:51:00;14.43;;;3.37;;
13683;SDS011;6914;53.552;9.908;2023-06-04T05:53:28;11.40;;;3.73;;
13683;SDS011;6914;53.552;9.908;2023-06-04T05:55:55;8.23;;;2.93;;
13683;SDS011;6914;53.552;9.908;2023-06-04T05:58:23;3.70;;;3.40;;
13683;SDS011;6914;53.552;9.908;2023-06-04T06:00:50;5.07;;;3.37;;
13683;SDS011;6914;53.552;9.908;2023-06-04T06:03:17;7.30;;;3.63;;
13683;SDS011;6914;53.552;9.908;2023-06-04T06:05:45;8.00;;;3.47;;
13683;SDS011;6914;53.552;9.908;2023-06-04T06:08:13;20.83;;;4.03;;
13683;SDS011;6914;53.552;9.908;2023-06-04T06:10:42;9.70;;;3.80;;
13683;SDS011;6914;53.552;9.908;2023-06-04T06:13:10;7.60;;;3.57;;
13683;SDS011;6914;53.552;9.908;2023-06-04T06:15:40;7.07;;;4.20;;
13683;SDS011;6914;53.552;9.908;2023-06-04T06:18:07;3.97;;;3.10;;
13683;SDS011;6914;53.552;9.908;2023-06-04T06:20:35;8.23;;;3.17;;
13683;SDS011;6914;53.552;9.908;2023-06-04T06:23:05;4.60;;;2.60;;
13683;SDS011;6914;53.552;9.908;2023-06-04T06:25:32;8.80;;;3.70;;
13683;SDS011;6914;53.552;9.908;2023-06-04T06:28:02;19.00;;;3.13;;
13683;SDS011;6914;53.552;9.908;2023-06-04T06:30:29;9.03;;;2.93;;
13683;SDS011;6914;53.552;9.908;2023-06-04T06:32:56;7.50;;;2.63;;
13683;SDS011;6914;53.552;9.908;2023-06-04T06:35:24;8.50;;;2.73;;
13683;SDS011;6914;53.552;9.908;2023-06-04T06:37:51;10.07;;;3.50;;
13683;SDS011;6914;53.552;9.908;2023-06-04T06:40:19;3.53;;;3.30;;
13683;SDS011;6914;53.552;9.908;2023-06-04T06:42:47;8.40;;;3.10;;
13683;SDS011;6914;53.552;9.908;2023-06-04T06:45:16;4.30;;;2.80;;
13683;SDS011;6914;53.552;9.908;2023-06-04T06:47:44;9.90;;;3.07;;
13683;SDS011;6914;53.552;9.908;2023-06-04T06:50:12;5.20;;;2.80;;
13683;SDS011;6914;53.552;9.908;2023-06-04T06:52:40;4.03;;;2.53;;
13683;SDS011;6914;53.552;9.908;2023-06-04T06:55:07;13.13;;;2.40;;
13683;SDS011;6914;53.552;9.908;2023-06-04T06:57:35;6.80;;;2.23;;
13683;SDS011;6914;53.552;9.908;2023-06-04T07:00:02;19.87;;;3.17;;
13683;SDS011;6914;53.552;9.908;2023-06-04T07:02:32;12.30;;;2.40;;
13683;SDS011;6914;53.552;9.908;2023-06-04T07:04:59;5.63;;;2.60;;
13683;SDS011;6914;53.552;9.908;2023-06-04T07:07:26;3.50;;;2.50;;
13683;SDS011;6914;53.552;9.908;2023-06-04T07:09:54;5.50;;;2.47;;
13683;SDS011;6914;53.552;9.908;2023-06-04T07:12:21;11.10;;;3.37;;
13683;SDS011;6914;53.552;9.908;2023-06-04T07:14:48;7.93;;;2.37;;
13683;SDS011;6914;53.552;9.908;2023-06-04T07:17:15;3.73;;;1.97;;
13683;SDS011;6914;53.552;9.908;2023-06-04T07:19:44;4.93;;;2.60;;
13683;SDS011;6914;53.552;9.908;2023-06-04T07:22:13;2.37;;;2.13;;
13683;SDS011;6914;53.552;9.908;2023-06-04T07:24:41;2.83;;;1.63;;
13683;SDS011;6914;53.552;9.908;2023-06-04T07:27:14;3.73;;;2.30;;
13683;SDS011;6914;53.552;9.908;2023-06-04T07:29:42;2.03;;;1.40;;
13683;SDS011;6914;53.552;9.908;2023-06-04T07:32:10;10.63;;;2.70;;
13683;SDS011;6914;53.552;9.908;2023-06-04T07:34:39;5.80;;;2.40;;
13683;SDS011;6914;53.552;9.908;2023-06-04T07:37:10;4.77;;;2.27;;
13683;SDS011;6914;53.552;9.908;2023-06-04T07:39:40;3.83;;;2.47;;
13683;SDS011;6914;53.552;9.908;2023-06-04T07:42:07;9.13;;;2.00;;
13683;SDS011;6914;53.552;9.908;2023-06-04T07:44:39;3.53;;;2.10;;
13683;SDS011;6914;53.552;9.908;2023-06-04T07:47:06;2.20;;;2.10;;
13683;SDS011;6914;53.552;9.908;2023-06-04T07:49:35;3.60;;;1.80;;
13683;SDS011;6914;53.552;9.908;2023-06-04T07:52:03;5.77;;;2.33;;
13683;SDS011;6914;53.552;9.908;2023-06-04T07:54:32;4.37;;;2.50;;
13683;SDS011;6914;53.552;9.908;2023-06-04T07:56:59;8.77;;;2.90;;
13683;SDS011;6914;53.552;9.908;2023-06-04T07:59:27;3.13;;;2.10;;
13683;SDS011;6914;53.552;9.908;2023-06-04T08:01:54;7.43;;;2.47;;
13683;SDS011;6914;53.552;9.908;2023-06-04T08:04:21;3.00;;;2.07;;
13683;SDS011;6914;53.552;9.908;2023-06-04T08:06:48;2.63;;;2.20;;
13683;SDS011;6914;53.552;9.908;2023-06-04T08:09:16;6.47;;;2.27;;
13683;SDS011;6914;53.552;9.908;2023-06-04T08:11:45;1.90;;;1.67;;
13683;SDS011;6914;53.552;9.908;2023-06-04T08:14:15;1.63;;;1.43;;
13683;SDS011;6914;53.552;9.908;2023-06-04T08:16:43;3.40;;;1.90;;
13683;SDS011;6914;53.552;9.908;2023-06-04T08:19:11;2.30;;;1.87;;
13683;SDS011;6914;53.552;9.908;2023-06-04T08:21:41;8.03;;;2.03;;
13683;SDS011;6914;53.552;9.908;2023-06-04T08:24:15;2.07;;;1.87;;
13683;SDS011;6914;53.552;9.908;2023-06-04T08:26:44;7.07;;;1.80;;
13683;SDS011;6914;53.552;9.908;2023-06-04T08:29:12;4.50;;;1.57;;
13683;SDS011;6914;53.552;9.908;2023-06-04T08:31:41;2.53;;;1.87;;
13683;SDS011;6914;53.552;9.908;2023-06-04T08:34:17;3.20;;;2.10;;
13683;SDS011;6914;53.552;9.908;2023-06-04T08:36:47;5.60;;;2.10;;
13683;SDS011;6914;53.552;9.908;2023-06-04T08:39:15;1.70;;;1.50;;
13683;SDS011;6914;53.552;9.908;2023-06-04T08:41:43;2.30;;;2.10;;
13683;SDS011;6914;53.552;9.908;2023-06-04T08:44:15;4.83;;;1.60;;
13683;SDS011;6914;53.552;9.908;2023-06-04T08:46:43;1.50;;;1.20;;
13683;SDS011;6914;53.552;9.908;2023-06-04T08:49:12;4.20;;;1.60;;
13683;SDS011;6914;53.552;9.908;2023-06-04T08:51:41;2.30;;;1.60;;
13683;SDS011;6914;53.552;9.908;2023-06-04T08:56:40;4.93;;;2.93;;
13683;SDS011;6914;53.552;9.908;2023-06-04T08:59:18;3.47;;;1.87;;
13683;SDS011;6914;53.552;9.908;2023-06-04T09:01:45;3.17;;;1.87;;
13683;SDS011;6914;53.552;9.908;2023-06-04T09:04:16;1.77;;;1.50;;
13683;SDS011;6914;53.552;9.908;2023-06-04T09:06:43;5.20;;;1.70;;
13683;SDS011;6914;53.552;9.908;2023-06-04T09:09:14;2.53;;;1.63;;
13683;SDS011;6914;53.552;9.908;2023-06-04T09:11:45;4.30;;;2.00;;
13683;SDS011;6914;53.552;9.908;2023-06-04T09:14:18;2.33;;;1.90;;
13683;SDS011;6914;53.552;9.908;2023-06-04T09:16:45;4.50;;;1.57;;
13683;SDS011;6914;53.552;9.908;2023-06-04T09:19:15;1.57;;;1.30;;
13683;SDS011;6914;53.552;9.908;2023-06-04T09:21:47;2.67;;;1.30;;
13683;SDS011;6914;53.552;9.908;2023-06-04T09:24:17;2.43;;;1.50;;
13683;SDS011;6914;53.552;9.908;2023-06-04T09:26:44;7.53;;;1.73;;
13683;SDS011;6914;53.552;9.908;2023-06-04T09:29:12;2.43;;;1.40;;
13683;SDS011;6914;53.552;9.908;2023-06-04T09:31:45;1.70;;;1.60;;
13683;SDS011;6914;53.552;9.908;2023-06-04T09:34:13;5.27;;;1.40;;
13683;SDS011;6914;53.552;9.908;2023-06-04T09:36:42;2.20;;;1.73;;
13683;SDS011;6914;53.552;9.908;2023-06-04T09:39:16;10.60;;;1.67;;
13683;SDS011;6914;53.552;9.908;2023-06-04T09:41:44;3.00;;;1.50;;
13683;SDS011;6914;53.552;9.908;2023-06-04T09:44:12;3.10;;;1.80;;
13683;SDS011;6914;53.552;9.908;2023-06-04T09:46:41;4.13;;;2.10;;
13683;SDS011;6914;53.552;9.908;2023-06-04T09:49:10;2.00;;;1.50;;
13683;SDS011;6914;53.552;9.908;2023-06-04T09:51:46;3.33;;;1.40;;
13683;SDS011;6914;53.552;9.908;2023-06-04T09:54:13;5.53;;;1.70;;
13683;SDS011;6914;53.552;9.908;2023-06-04T09:56:44;1.57;;;1.37;;
13683;SDS011;6914;53.552;9.908;2023-06-04T09:59:17;1.67;;;1.27;;
13683;SDS011;6914;53.552;9.908;2023-06-04T10:01:45;1.97;;;1.17;;
13683;SDS011;6914;53.552;9.908;2023-06-04T10:04:15;0.90;;;0.90;;
13683;SDS011;6914;53.552;9.908;2023-06-04T10:06:43;2.50;;;1.50;;
13683;SDS011;6914;53.552;9.908;2023-06-04T10:09:10;1.50;;;1.40;;
13683;SDS011;6914;53.552;9.908;2023-06-04T10:11:44;1.60;;;1.10;;
13683;SDS011;6914;53.552;9.908;2023-06-04T10:14:14;6.83;;;1.23;;
13683;SDS011;6914;53.552;9.908;2023-06-04T10:16:43;4.80;;;1.30;;
13683;SDS011;6914;53.552;9.908;2023-06-04T10:19:11;1.80;;;0.93;;
13683;SDS011;6914;53.552;9.908;2023-06-04T10:21:46;0.97;;;0.80;;
13683;SDS011;6914;53.552;9.908;2023-06-04T10:24:14;1.13;;;0.93;;
13683;SDS011;6914;53.552;9.908;2023-06-04T10:26:42;1.37;;;1.00;;
13683;SDS011;6914;53.552;9.908;2023-06-04T10:29:10;1.60;;;1.13;;
13683;SDS011;6914;53.552;9.908;2023-06-04T10:31:43;2.73;;;1.20;;
13683;SDS011;6914;53.552;9.908;2023-06-04T10:34:10;2.50;;;1.40;;
13683;SDS011;6914;53.552;9.908;2023-06-04T10:36:42;5.20;;;1.27;;
13683;SDS011;6914;53.552;9.908;2023-06-04T10:39:12;2.00;;;1.03;;
13683;SDS011;6914;53.552;9.908;2023-06-04T10:41:43;1.73;;;1.63;;
13683;SDS011;6914;53.552;9.908;2023-06-04T10:44:11;2.13;;;1.40;;
13683;SDS011;6914;53.552;9.908;2023-06-04T10:46:44;1.10;;;0.97;;
13683;SDS011;6914;53.552;9.908;2023-06-04T10:49:13;3.90;;;1.23;;
13683;SDS011;6914;53.552;9.908;2023-06-04T10:51:43;1.83;;;1.10;;
13683;SDS011;6914;53.552;9.908;2023-06-04T10:54:21;5.20;;;0.90;;
13683;SDS011;6914;53.552;9.908;2023-06-04T10:56:54;2.13;;;1.57;;
13683;SDS011;6914;53.552;9.908;2023-06-04T10:59:22;0.70;;;0.70;;
13683;SDS011;6914;53.552;9.908;2023-06-04T11:01:49;2.87;;;1.00;;
13683;SDS011;6914;53.552;9.908;2023-06-04T11:04:20;0.97;;;0.97;;
13683;SDS011;6914;53.552;9.908;2023-06-04T11:06:48;19.30;;;1.47;;
13683;SDS011;6914;53.552;9.908;2023-06-04T11:09:17;1.43;;;1.17;;
13683;SDS011;6914;53.552;9.908;2023-06-04T11:11:47;3.80;;;1.00;;
13683;SDS011;6914;53.552;9.908;2023-06-04T11:14:25;2.37;;;1.07;;
13683;SDS011;6914;53.552;9.908;2023-06-04T11:17:08;0.97;;;0.90;;
13683;SDS011;6914;53.552;9.908;2023-06-04T11:19:38;1.10;;;0.93;;
13683;SDS011;6914;53.552;9.908;2023-06-04T11:22:10;1.30;;;1.20;;
13683;SDS011;6914;53.552;9.908;2023-06-04T11:24:41;2.60;;;0.90;;
13683;SDS011;6914;53.552;9.908;2023-06-04T11:27:08;1.70;;;1.20;;
13683;SDS011;6914;53.552;9.908;2023-06-04T11:29:37;1.47;;;1.37;;
13683;SDS011;6914;53.552;9.908;2023-06-04T11:32:25;4.53;;;0.97;;
13683;SDS011;6914;53.552;9.908;2023-06-04T11:35:01;2.23;;;1.30;;
13683;SDS011;6914;53.552;9.908;2023-06-04T11:37:29;1.03;;;0.93;;
13683;SDS011;6914;53.552;9.908;2023-06-04T11:40:18;2.10;;;1.83;;
13683;SDS011;6914;53.552;9.908;2023-06-04T11:42:46;10.87;;;1.20;;
13683;SDS011;6914;53.552;9.908;2023-06-04T11:45:36;3.37;;;0.90;;
13683;SDS011;6914;53.552;9.908;2023-06-04T11:48:05;3.17;;;1.00;;
13683;SDS011;6914;53.552;9.908;2023-06-04T11:50:35;1.80;;;1.70;;
13683;SDS011;6914;53.552;9.908;2023-06-04T11:53:04;6.40;;;0.90;;
13683;SDS011;6914;53.552;9.908;2023-06-04T11:55:33;1.17;;;0.93;;
13683;SDS011;6914;53.552;9.908;2023-06-04T11:58:01;1.20;;;1.00;;
13683;SDS011;6914;53.552;9.908;2023-06-04T12:00:29;1.10;;;1.00;;
13683;SDS011;6914;53.552;9.908;2023-06-04T12:02:56;1.40;;;1.27;;
13683;SDS011;6914;53.552;9.908;2023-06-04T12:05:28;1.03;;;0.93;;
13683;SDS011;6914;53.552;9.908;2023-06-04T12:08:03;1.27;;;0.97;;
13683;SDS011;6914;53.552;9.908;2023-06-04T12:13:41;1.27;;;1.03;;
13683;SDS011;6914;53.552;9.908;2023-06-04T12:16:17;1.17;;;1.10;;
13683;SDS011;6914;53.552;9.908;2023-06-04T12:19:07;5.77;;;1.33;;
13683;SDS011;6914;53.552;9.908;2023-06-04T12:21:35;1.20;;;1.10;;
13683;SDS011;6914;53.552;9.908;2023-06-04T12:24:05;2.70;;;1.23;;
13683;SDS011;6914;53.552;9.908;2023-06-04T12:26:41;1.83;;;1.30;;
13683;SDS011;6914;53.552;9.908;2023-06-04T12:31:51;2.77;;;0.87;;
13683;SDS011;6914;53.552;9.908;2023-06-04T12:34:40;2.57;;;1.23;;
13683;SDS011;6914;53.552;9.908;2023-06-04T12:37:40;1.40;;;1.20;;
13683;SDS011;6914;53.552;9.908;2023-06-04T12:40:26;1.63;;;1.00;;
13683;SDS011;6914;53.552;9.908;2023-06-04T12:43:17;1.53;;;1.30;;
13683;SDS011;6914;53.552;9.908;2023-06-04T12:46:05;3.43;;;1.43;;
13683;SDS011;6914;53.552;9.908;2023-06-04T12:49:16;1.43;;;1.33;;
13683;SDS011;6914;53.552;9.908;2023-06-04T12:51:57;3.10;;;1.50;;
13683;SDS011;6914;53.552;9.908;2023-06-04T12:54:24;2.27;;;1.60;;
13683;SDS011;6914;53.552;9.908;2023-06-04T12:56:52;1.60;;;1.50;;
13683;SDS011;6914;53.552;9.908;2023-06-04T12:59:20;7.27;;;1.60;;
13683;SDS011;6914;53.552;9.908;2023-06-04T13:01:48;1.87;;;1.63;;
13683;SDS011;6914;53.552;9.908;2023-06-04T13:04:16;1.30;;;1.20;;
13683;SDS011;6914;53.552;9.908;2023-06-04T13:06:44;1.30;;;1.20;;
13683;SDS011;6914;53.552;9.908;2023-06-04T13:09:12;2.33;;;1.47;;
13683;SDS011;6914;53.552;9.908;2023-06-04T13:11:40;4.10;;;1.57;;
13683;SDS011;6914;53.552;9.908;2023-06-04T13:14:07;1.20;;;1.10;;
13683;SDS011;6914;53.552;9.908;2023-06-04T13:16:35;1.33;;;1.10;;
13683;SDS011;6914;53.552;9.908;2023-06-04T13:19:02;2.60;;;1.73;;
13683;SDS011;6914;53.552;9.908;2023-06-04T13:21:31;2.50;;;1.60;;
13683;SDS011;6914;53.552;9.908;2023-06-04T13:23:58;1.57;;;1.47;;
13683;SDS011;6914;53.552;9.908;2023-06-04T13:26:25;1.37;;;1.27;;
13683;SDS011;6914;53.552;9.908;2023-06-04T13:28:53;1.53;;;1.43;;
13683;SDS011;6914;53.552;9.908;2023-06-04T13:31:20;5.90;;;1.83;;
13683;SDS011;6914;53.552;9.908;2023-06-04T13:33:47;3.63;;;1.60;;
13683;SDS011;6914;53.552;9.908;2023-06-04T13:36:14;1.53;;;1.43;;
13683;SDS011;6914;53.552;9.908;2023-06-04T13:38:43;1.97;;;0.97;;
13683;SDS011;6914;53.552;9.908;2023-06-04T13:41:10;2.30;;;1.33;;
13683;SDS011;6914;53.552;9.908;2023-06-04T13:43:37;1.83;;;1.20;;
13683;SDS011;6914;53.552;9.908;2023-06-04T13:46:05;3.83;;;1.50;;
13683;SDS011;6914;53.552;9.908;2023-06-04T13:48:32;2.17;;;2.07;;
13683;SDS011;6914;53.552;9.908;2023-06-04T13:51:02;2.30;;;2.20;;
13683;SDS011;6914;53.552;9.908;2023-06-04T13:53:30;2.60;;;1.60;;
13683;SDS011;6914;53.552;9.908;2023-06-04T13:55:58;1.83;;;1.20;;
13683;SDS011;6914;53.552;9.908;2023-06-04T13:58:25;1.40;;;1.30;;
13683;SDS011;6914;53.552;9.908;2023-06-04T14:00:53;1.10;;;0.93;;
13683;SDS011;6914;53.552;9.908;2023-06-04T14:03:21;2.70;;;1.67;;
13683;SDS011;6914;53.552;9.908;2023-06-04T14:05:48;1.13;;;1.03;;
13683;SDS011;6914;53.552;9.908;2023-06-04T14:08:15;2.47;;;1.53;;
13683;SDS011;6914;53.552;9.908;2023-06-04T14:10:43;2.63;;;1.50;;
13683;SDS011;6914;53.552;9.908;2023-06-04T14:13:11;3.20;;;1.40;;
13683;SDS011;6914;53.552;9.908;2023-06-04T14:15:39;5.20;;;2.97;;
13683;SDS011;6914;53.552;9.908;2023-06-04T14:18:06;4.70;;;1.50;;
13683;SDS011;6914;53.552;9.908;2023-06-04T14:20:33;1.83;;;1.43;;
13683;SDS011;6914;53.552;9.908;2023-06-04T14:23:01;2.30;;;1.70;;
13683;SDS011;6914;53.552;9.908;2023-06-04T14:25:28;5.80;;;1.30;;
13683;SDS011;6914;53.552;9.908;2023-06-04T14:27:57;4.07;;;1.27;;
13683;SDS011;6914;53.552;9.908;2023-06-04T14:30:26;1.97;;;1.30;;
13683;SDS011;6914;53.552;9.908;2023-06-04T14:32:53;1.13;;;1.03;;
13683;SDS011;6914;53.552;9.908;2023-06-04T14:35:20;1.57;;;1.47;;
13683;SDS011;6914;53.552;9.908;2023-06-04T14:37:48;1.13;;;1.10;;
13683;SDS011;6914;53.552;9.908;2023-06-04T14:40:16;1.90;;;1.80;;
13683;SDS011;6914;53.552;9.908;2023-06-04T14:42:43;2.60;;;1.40;;
13683;SDS011;6914;53.552;9.908;2023-06-04T14:45:10;4.73;;;1.60;;
13683;SDS011;6914;53.552;9.908;2023-06-04T14:47:39;5.87;;;2.67;;
13683;SDS011;6914;53.552;9.908;2023-06-04T14:50:08;1.90;;;1.80;;
13683;SDS011;6914;53.552;9.908;2023-06-04T14:52:36;8.33;;;1.80;;
13683;SDS011;6914;53.552;9.908;2023-06-04T14:55:03;4.10;;;1.47;;
13683;SDS011;6914;53.552;9.908;2023-06-04T14:57:30;2.90;;;1.40;;
13683;SDS011;6914;53.552;9.908;2023-06-04T14:59:58;1.90;;;1.43;;
13683;SDS011;6914;53.552;9.908;2023-06-04T15:02:27;2.37;;;1.80;;
13683;SDS011;6914;53.552;9.908;2023-06-04T15:04:55;2.27;;;2.03;;
13683;SDS011;6914;53.552;9.908;2023-06-04T15:07:23;2.13;;;1.90;;
13683;SDS011;6914;53.552;9.908;2023-06-04T15:09:50;3.93;;;2.00;;
13683;SDS011;6914;53.552;9.908;2023-06-04T15:12:17;2.13;;;1.80;;
13683;SDS011;6914;53.552;9.908;2023-06-04T15:14:45;2.93;;;1.70;;
13683;SDS011;6914;53.552;9.908;2023-06-04T15:17:12;2.30;;;2.07;;
13683;SDS011;6914;53.552;9.908;2023-06-04T15:19:39;1.73;;;1.30;;
13683;SDS011;6914;53.552;9.908;2023-06-04T15:22:08;3.10;;;1.70;;